sensor_id;sensor_type;location;lat;lon;timestamp;P1;durP1;ratioP1;P2;durP2;ratioP2
21315;SDS011;10817;55.820;13.030;2023-03-31T00:02:23;22.73;;;13.25;;
21315;SDS011;10817;55.820;13.030;2023-03-31T00:04:54;25.88;;;12.20;;
21315;SDS011;10817;55.820;13.030;2023-03-31T00:07:25;27.35;;;13.40;;
21315;SDS011;10817;55.820;13.030;2023-03-31T00:09:52;27.05;;;13.82;;
21315;SDS011;10817;55.820;13.030;2023-03-31T00:12:21;25.17;;;13.80;;
21315;SDS011;10817;55.820;13.030;2023-03-31T00:14:49;34.45;;;15.25;;
21315;SDS011;10817;55.820;13.030;2023-03-31T00:17:16;31.23;;;14.75;;
21315;SDS011;10817;55.820;13.030;2023-03-31T00:19:43;27.65;;;14.98;;
21315;SDS011;10817;55.820;13.030;2023-03-31T00:22:15;28.85;;;14.48;;
21315;SDS011;10817;55.820;13.030;2023-03-31T00:24:47;22.88;;;13.57;;
21315;SDS011;10817;55.820;13.030;2023-03-31T00:27:15;29.60;;;14.30;;
21315;SDS011;10817;55.820;13.030;2023-03-31T00:29:42;22.42;;;13.25;;
21315;SDS011;10817;55.820;13.030;2023-03-31T00:32:09;27.77;;;13.63;;
21315;SDS011;10817;55.820;13.030;2023-03-31T00:34:38;31.63;;;13.65;;
21315;SDS011;10817;55.820;13.030;2023-03-31T00:37:05;27.40;;;12.70;;
21315;SDS011;10817;55.820;13.030;2023-03-31T00:39:34;25.83;;;12.50;;
21315;SDS011;10817;55.820;13.030;2023-03-31T00:42:03;26.73;;;12.68;;
21315;SDS011;10817;55.820;13.030;2023-03-31T00:44:34;26.23;;;11.30;;
21315;SDS011;10817;55.820;13.030;2023-03-31T00:47:02;24.45;;;11.55;;
21315;SDS011;10817;55.820;13.030;2023-03-31T00:49:32;27.85;;;11.45;;
21315;SDS011;10817;55.820;13.030;2023-03-31T00:52:00;21.65;;;10.93;;
21315;SDS011;10817;55.820;13.030;2023-03-31T00:54:30;24.33;;;11.20;;
21315;SDS011;10817;55.820;13.030;2023-03-31T00:56:58;22.80;;;10.80;;
21315;SDS011;10817;55.820;13.030;2023-03-31T00:59:33;20.10;;;9.27;;
21315;SDS011;10817;55.820;13.030;2023-03-31T01:02:02;15.90;;;9.52;;
21315;SDS011;10817;55.820;13.030;2023-03-31T01:04:30;16.50;;;8.23;;
21315;SDS011;10817;55.820;13.030;2023-03-31T01:06:59;18.75;;;8.00;;
21315;SDS011;10817;55.820;13.030;2023-03-31T01:09:29;15.82;;;6.82;;
21315;SDS011;10817;55.820;13.030;2023-03-31T01:12:00;11.48;;;6.00;;
21315;SDS011;10817;55.820;13.030;2023-03-31T01:14:28;12.65;;;5.82;;
21315;SDS011;10817;55.820;13.030;2023-03-31T01:16:57;12.00;;;6.30;;
21315;SDS011;10817;55.820;13.030;2023-03-31T01:19:29;13.02;;;6.05;;
21315;SDS011;10817;55.820;13.030;2023-03-31T01:22:08;12.23;;;6.30;;
21315;SDS011;10817;55.820;13.030;2023-03-31T01:24:44;10.85;;;5.57;;
21315;SDS011;10817;55.820;13.030;2023-03-31T01:30:17;8.88;;;5.97;;
21315;SDS011;10817;55.820;13.030;2023-03-31T01:38:33;11.45;;;6.22;;
21315;SDS011;10817;55.820;13.030;2023-03-31T01:41:19;7.72;;;5.93;;
21315;SDS011;10817;55.820;13.030;2023-03-31T01:43:50;13.80;;;6.60;;
21315;SDS011;10817;55.820;13.030;2023-03-31T01:46:22;10.80;;;6.20;;
21315;SDS011;10817;55.820;13.030;2023-03-31T01:48:56;12.65;;;6.38;;
21315;SDS011;10817;55.820;13.030;2023-03-31T01:51:27;15.88;;;6.80;;
21315;SDS011;10817;55.820;13.030;2023-03-31T01:53:59;11.98;;;6.60;;
21315;SDS011;10817;55.820;13.030;2023-03-31T01:56:31;16.77;;;7.93;;
21315;SDS011;10817;55.820;13.030;2023-03-31T01:59:00;14.80;;;7.15;;
21315;SDS011;10817;55.820;13.030;2023-03-31T02:01:30;10.75;;;6.55;;
21315;SDS011;10817;55.820;13.030;2023-03-31T02:04:00;13.50;;;8.32;;
21315;SDS011;10817;55.820;13.030;2023-03-31T02:06:30;13.10;;;8.25;;
21315;SDS011;10817;55.820;13.030;2023-03-31T02:09:00;17.83;;;9.60;;
21315;SDS011;10817;55.820;13.030;2023-03-31T02:11:28;15.25;;;8.48;;
21315;SDS011;10817;55.820;13.030;2023-03-31T02:14:00;15.95;;;9.40;;
21315;SDS011;10817;55.820;13.030;2023-03-31T02:16:31;17.98;;;10.13;;
21315;SDS011;10817;55.820;13.030;2023-03-31T02:19:03;15.82;;;9.63;;
21315;SDS011;10817;55.820;13.030;2023-03-31T02:21:30;12.90;;;8.23;;
21315;SDS011;10817;55.820;13.030;2023-03-31T02:23:58;14.98;;;8.55;;
21315;SDS011;10817;55.820;13.030;2023-03-31T02:26:28;18.25;;;9.15;;
21315;SDS011;10817;55.820;13.030;2023-03-31T02:28:57;16.48;;;10.18;;
21315;SDS011;10817;55.820;13.030;2023-03-31T02:31:27;22.45;;;10.77;;
21315;SDS011;10817;55.820;13.030;2023-03-31T02:33:55;20.30;;;11.32;;
21315;SDS011;10817;55.820;13.030;2023-03-31T02:36:22;20.38;;;11.82;;
21315;SDS011;10817;55.820;13.030;2023-03-31T02:38:51;25.77;;;12.25;;
21315;SDS011;10817;55.820;13.030;2023-03-31T02:41:19;22.80;;;11.77;;
21315;SDS011;10817;55.820;13.030;2023-03-31T02:43:48;33.75;;;12.55;;
21315;SDS011;10817;55.820;13.030;2023-03-31T02:46:15;34.33;;;12.32;;
21315;SDS011;10817;55.820;13.030;2023-03-31T02:48:44;32.20;;;12.70;;
21315;SDS011;10817;55.820;13.030;2023-03-31T02:51:21;32.65;;;13.15;;
21315;SDS011;10817;55.820;13.030;2023-03-31T02:54:08;30.55;;;11.30;;
21315;SDS011;10817;55.820;13.030;2023-03-31T02:56:54;33.75;;;13.30;;
21315;SDS011;10817;55.820;13.030;2023-03-31T02:59:29;32.63;;;12.73;;
21315;SDS011;10817;55.820;13.030;2023-03-31T03:02:11;39.33;;;14.10;;
21315;SDS011;10817;55.820;13.030;2023-03-31T03:04:52;29.48;;;13.30;;
21315;SDS011;10817;55.820;13.030;2023-03-31T03:07:28;36.33;;;13.27;;
21315;SDS011;10817;55.820;13.030;2023-03-31T03:10:03;39.85;;;14.63;;
21315;SDS011;10817;55.820;13.030;2023-03-31T03:12:32;38.80;;;14.10;;
21315;SDS011;10817;55.820;13.030;2023-03-31T03:15:00;40.97;;;14.60;;
21315;SDS011;10817;55.820;13.030;2023-03-31T03:17:29;46.33;;;15.10;;
21315;SDS011;10817;55.820;13.030;2023-03-31T03:20:00;47.38;;;15.63;;
21315;SDS011;10817;55.820;13.030;2023-03-31T03:22:31;42.97;;;15.10;;
21315;SDS011;10817;55.820;13.030;2023-03-31T03:24:59;40.40;;;14.55;;
21315;SDS011;10817;55.820;13.030;2023-03-31T03:27:26;39.42;;;14.48;;
21315;SDS011;10817;55.820;13.030;2023-03-31T03:29:54;36.63;;;14.18;;
21315;SDS011;10817;55.820;13.030;2023-03-31T03:32:21;32.63;;;13.90;;
21315;SDS011;10817;55.820;13.030;2023-03-31T03:34:50;35.25;;;14.15;;
21315;SDS011;10817;55.820;13.030;2023-03-31T03:37:19;38.50;;;12.90;;
21315;SDS011;10817;55.820;13.030;2023-03-31T03:39:46;37.85;;;13.27;;
21315;SDS011;10817;55.820;13.030;2023-03-31T03:42:13;36.92;;;13.57;;
21315;SDS011;10817;55.820;13.030;2023-03-31T03:44:40;35.63;;;12.80;;
21315;SDS011;10817;55.820;13.030;2023-03-31T03:47:08;29.17;;;11.20;;
21315;SDS011;10817;55.820;13.030;2023-03-31T03:49:35;26.67;;;11.85;;
21315;SDS011;10817;55.820;13.030;2023-03-31T03:52:02;29.02;;;10.52;;
21315;SDS011;10817;55.820;13.030;2023-03-31T03:54:31;27.33;;;11.77;;
21315;SDS011;10817;55.820;13.030;2023-03-31T03:56:58;34.88;;;12.20;;
21315;SDS011;10817;55.820;13.030;2023-03-31T03:59:25;33.47;;;12.13;;
21315;SDS011;10817;55.820;13.030;2023-03-31T04:01:52;32.13;;;13.07;;
21315;SDS011;10817;55.820;13.030;2023-03-31T04:04:19;40.50;;;14.68;;
21315;SDS011;10817;55.820;13.030;2023-03-31T04:06:47;44.42;;;14.07;;
21315;SDS011;10817;55.820;13.030;2023-03-31T04:09:14;49.17;;;15.07;;
21315;SDS011;10817;55.820;13.030;2023-03-31T04:11:42;46.15;;;14.77;;
21315;SDS011;10817;55.820;13.030;2023-03-31T04:14:10;39.85;;;14.88;;
21315;SDS011;10817;55.820;13.030;2023-03-31T04:16:37;47.90;;;14.90;;
21315;SDS011;10817;55.820;13.030;2023-03-31T04:19:04;42.80;;;14.02;;
21315;SDS011;10817;55.820;13.030;2023-03-31T04:21:32;45.83;;;14.73;;
21315;SDS011;10817;55.820;13.030;2023-03-31T04:24:00;50.25;;;15.73;;
21315;SDS011;10817;55.820;13.030;2023-03-31T04:26:29;48.25;;;17.23;;
21315;SDS011;10817;55.820;13.030;2023-03-31T04:29:05;48.80;;;18.00;;
21315;SDS011;10817;55.820;13.030;2023-03-31T04:31:32;40.35;;;14.15;;
21315;SDS011;10817;55.820;13.030;2023-03-31T04:34:02;42.63;;;14.50;;
21315;SDS011;10817;55.820;13.030;2023-03-31T04:36:31;47.72;;;14.10;;
21315;SDS011;10817;55.820;13.030;2023-03-31T04:38:58;50.75;;;16.30;;
21315;SDS011;10817;55.820;13.030;2023-03-31T04:41:25;54.92;;;15.98;;
21315;SDS011;10817;55.820;13.030;2023-03-31T04:43:53;53.20;;;15.13;;
21315;SDS011;10817;55.820;13.030;2023-03-31T04:46:21;51.13;;;16.55;;
21315;SDS011;10817;55.820;13.030;2023-03-31T04:48:49;43.85;;;13.90;;
21315;SDS011;10817;55.820;13.030;2023-03-31T04:51:16;46.22;;;14.15;;
21315;SDS011;10817;55.820;13.030;2023-03-31T04:53:44;47.13;;;14.70;;
21315;SDS011;10817;55.820;13.030;2023-03-31T04:56:11;52.15;;;14.23;;
21315;SDS011;10817;55.820;13.030;2023-03-31T04:58:39;56.47;;;15.20;;
21315;SDS011;10817;55.820;13.030;2023-03-31T05:01:06;52.40;;;15.05;;
21315;SDS011;10817;55.820;13.030;2023-03-31T05:03:35;49.42;;;15.50;;
21315;SDS011;10817;55.820;13.030;2023-03-31T05:06:02;54.13;;;16.50;;
21315;SDS011;10817;55.820;13.030;2023-03-31T05:08:30;62.42;;;16.20;;
21315;SDS011;10817;55.820;13.030;2023-03-31T05:10:58;75.15;;;16.02;;
21315;SDS011;10817;55.820;13.030;2023-03-31T05:13:25;72.07;;;18.77;;
21315;SDS011;10817;55.820;13.030;2023-03-31T05:15:52;73.88;;;17.73;;
21315;SDS011;10817;55.820;13.030;2023-03-31T05:18:19;64.93;;;18.00;;
21315;SDS011;10817;55.820;13.030;2023-03-31T05:20:48;86.07;;;19.73;;
21315;SDS011;10817;55.820;13.030;2023-03-31T05:23:15;79.65;;;19.13;;
21315;SDS011;10817;55.820;13.030;2023-03-31T05:25:42;84.40;;;18.98;;
21315;SDS011;10817;55.820;13.030;2023-03-31T05:28:09;94.47;;;19.65;;
21315;SDS011;10817;55.820;13.030;2023-03-31T05:30:36;79.68;;;18.83;;
21315;SDS011;10817;55.820;13.030;2023-03-31T05:33:03;101.00;;;21.50;;
21315;SDS011;10817;55.820;13.030;2023-03-31T05:35:30;90.10;;;20.70;;
21315;SDS011;10817;55.820;13.030;2023-03-31T05:37:59;90.70;;;20.02;;
21315;SDS011;10817;55.820;13.030;2023-03-31T05:40:26;82.97;;;20.60;;
21315;SDS011;10817;55.820;13.030;2023-03-31T05:42:53;69.03;;;18.17;;
21315;SDS011;10817;55.820;13.030;2023-03-31T05:45:21;88.72;;;19.85;;
21315;SDS011;10817;55.820;13.030;2023-03-31T05:47:48;71.80;;;19.30;;
21315;SDS011;10817;55.820;13.030;2023-03-31T05:50:15;77.47;;;18.48;;
21315;SDS011;10817;55.820;13.030;2023-03-31T05:52:42;74.63;;;18.58;;
21315;SDS011;10817;55.820;13.030;2023-03-31T05:55:11;81.18;;;17.92;;
21315;SDS011;10817;55.820;13.030;2023-03-31T05:57:38;77.70;;;17.35;;
21315;SDS011;10817;55.820;13.030;2023-03-31T06:00:06;93.90;;;17.63;;
21315;SDS011;10817;55.820;13.030;2023-03-31T06:02:34;87.68;;;17.33;;
21315;SDS011;10817;55.820;13.030;2023-03-31T06:05:01;75.60;;;17.80;;
21315;SDS011;10817;55.820;13.030;2023-03-31T06:07:29;79.07;;;16.38;;
21315;SDS011;10817;55.820;13.030;2023-03-31T06:09:56;73.65;;;17.38;;
21315;SDS011;10817;55.820;13.030;2023-03-31T06:12:24;73.43;;;18.35;;
21315;SDS011;10817;55.820;13.030;2023-03-31T06:14:51;78.05;;;17.65;;
21315;SDS011;10817;55.820;13.030;2023-03-31T06:17:19;72.28;;;18.20;;
21315;SDS011;10817;55.820;13.030;2023-03-31T06:19:46;71.20;;;17.45;;
21315;SDS011;10817;55.820;13.030;2023-03-31T06:22:13;79.65;;;18.30;;
21315;SDS011;10817;55.820;13.030;2023-03-31T06:24:40;61.38;;;16.77;;
21315;SDS011;10817;55.820;13.030;2023-03-31T06:27:08;83.15;;;18.50;;
21315;SDS011;10817;55.820;13.030;2023-03-31T06:29:36;66.78;;;18.50;;
21315;SDS011;10817;55.820;13.030;2023-03-31T06:32:03;66.03;;;16.98;;
21315;SDS011;10817;55.820;13.030;2023-03-31T06:34:30;68.60;;;17.63;;
21315;SDS011;10817;55.820;13.030;2023-03-31T06:36:58;58.88;;;16.58;;
21315;SDS011;10817;55.820;13.030;2023-03-31T06:39:25;63.15;;;17.92;;
21315;SDS011;10817;55.820;13.030;2023-03-31T06:41:52;65.50;;;17.80;;
21315;SDS011;10817;55.820;13.030;2023-03-31T06:44:25;74.45;;;20.90;;
21315;SDS011;10817;55.820;13.030;2023-03-31T06:46:53;73.43;;;22.85;;
21315;SDS011;10817;55.820;13.030;2023-03-31T06:49:21;91.03;;;24.05;;
21315;SDS011;10817;55.820;13.030;2023-03-31T06:51:48;77.40;;;19.23;;
21315;SDS011;10817;55.820;13.030;2023-03-31T06:54:15;77.63;;;19.45;;
21315;SDS011;10817;55.820;13.030;2023-03-31T06:56:42;70.70;;;18.50;;
21315;SDS011;10817;55.820;13.030;2023-03-31T06:59:09;96.50;;;22.25;;
21315;SDS011;10817;55.820;13.030;2023-03-31T07:01:37;91.45;;;18.95;;
21315;SDS011;10817;55.820;13.030;2023-03-31T07:04:07;90.57;;;19.52;;
21315;SDS011;10817;55.820;13.030;2023-03-31T07:06:35;91.72;;;19.00;;
21315;SDS011;10817;55.820;13.030;2023-03-31T07:09:02;86.70;;;18.38;;
21315;SDS011;10817;55.820;13.030;2023-03-31T07:11:29;85.82;;;18.20;;
21315;SDS011;10817;55.820;13.030;2023-03-31T07:13:57;133.65;;;19.20;;
21315;SDS011;10817;55.820;13.030;2023-03-31T07:16:24;123.25;;;21.77;;
21315;SDS011;10817;55.820;13.030;2023-03-31T07:18:55;114.78;;;20.20;;
21315;SDS011;10817;55.820;13.030;2023-03-31T07:21:25;116.65;;;20.83;;
21315;SDS011;10817;55.820;13.030;2023-03-31T07:23:52;93.75;;;20.25;;
21315;SDS011;10817;55.820;13.030;2023-03-31T07:26:20;104.78;;;18.85;;
21315;SDS011;10817;55.820;13.030;2023-03-31T07:28:48;112.03;;;22.08;;
21315;SDS011;10817;55.820;13.030;2023-03-31T07:31:16;102.30;;;20.10;;
21315;SDS011;10817;55.820;13.030;2023-03-31T07:33:43;94.10;;;19.83;;
21315;SDS011;10817;55.820;13.030;2023-03-31T07:36:10;99.13;;;19.83;;
21315;SDS011;10817;55.820;13.030;2023-03-31T07:38:39;88.75;;;18.77;;
21315;SDS011;10817;55.820;13.030;2023-03-31T07:41:10;109.20;;;20.63;;
21315;SDS011;10817;55.820;13.030;2023-03-31T07:43:37;100.55;;;20.55;;
21315;SDS011;10817;55.820;13.030;2023-03-31T07:46:05;100.75;;;19.35;;
21315;SDS011;10817;55.820;13.030;2023-03-31T07:48:32;109.82;;;21.42;;
21315;SDS011;10817;55.820;13.030;2023-03-31T07:50:59;85.63;;;20.95;;
21315;SDS011;10817;55.820;13.030;2023-03-31T07:53:32;96.35;;;21.15;;
21315;SDS011;10817;55.820;13.030;2023-03-31T07:56:00;106.53;;;21.40;;
21315;SDS011;10817;55.820;13.030;2023-03-31T07:58:27;89.28;;;19.58;;
21315;SDS011;10817;55.820;13.030;2023-03-31T08:00:54;104.55;;;21.77;;
21315;SDS011;10817;55.820;13.030;2023-03-31T08:03:21;126.82;;;23.92;;
21315;SDS011;10817;55.820;13.030;2023-03-31T08:05:49;108.80;;;21.90;;
21315;SDS011;10817;55.820;13.030;2023-03-31T08:08:17;126.15;;;24.90;;
21315;SDS011;10817;55.820;13.030;2023-03-31T08:10:44;119.13;;;24.65;;
21315;SDS011;10817;55.820;13.030;2023-03-31T08:13:13;104.05;;;22.50;;
21315;SDS011;10817;55.820;13.030;2023-03-31T08:15:40;117.15;;;24.40;;
21315;SDS011;10817;55.820;13.030;2023-03-31T08:18:07;113.55;;;21.85;;
21315;SDS011;10817;55.820;13.030;2023-03-31T08:20:34;91.25;;;21.45;;
21315;SDS011;10817;55.820;13.030;2023-03-31T08:23:03;107.13;;;23.88;;
21315;SDS011;10817;55.820;13.030;2023-03-31T08:25:33;122.78;;;23.90;;
21315;SDS011;10817;55.820;13.030;2023-03-31T08:28:00;125.28;;;25.95;;
21315;SDS011;10817;55.820;13.030;2023-03-31T08:30:28;113.88;;;23.40;;
21315;SDS011;10817;55.820;13.030;2023-03-31T08:32:56;112.00;;;24.33;;
21315;SDS011;10817;55.820;13.030;2023-03-31T08:35:23;112.68;;;25.83;;
21315;SDS011;10817;55.820;13.030;2023-03-31T08:37:50;102.22;;;23.98;;
21315;SDS011;10817;55.820;13.030;2023-03-31T08:40:19;103.93;;;25.55;;
21315;SDS011;10817;55.820;13.030;2023-03-31T08:42:48;95.57;;;24.40;;
21315;SDS011;10817;55.820;13.030;2023-03-31T08:45:16;86.38;;;23.23;;
21315;SDS011;10817;55.820;13.030;2023-03-31T08:47:48;94.93;;;22.42;;
21315;SDS011;10817;55.820;13.030;2023-03-31T08:50:18;105.90;;;23.65;;
21315;SDS011;10817;55.820;13.030;2023-03-31T08:52:47;83.88;;;22.33;;
21315;SDS011;10817;55.820;13.030;2023-03-31T08:55:16;105.35;;;22.42;;
21315;SDS011;10817;55.820;13.030;2023-03-31T08:57:49;88.50;;;22.83;;
21315;SDS011;10817;55.820;13.030;2023-03-31T09:00:18;103.10;;;21.80;;
21315;SDS011;10817;55.820;13.030;2023-03-31T09:02:49;93.68;;;22.63;;
21315;SDS011;10817;55.820;13.030;2023-03-31T09:05:22;112.63;;;22.23;;
21315;SDS011;10817;55.820;13.030;2023-03-31T09:07:54;98.57;;;22.35;;
21315;SDS011;10817;55.820;13.030;2023-03-31T09:10:38;95.25;;;19.95;;
21315;SDS011;10817;55.820;13.030;2023-03-31T09:13:10;91.03;;;20.88;;
21315;SDS011;10817;55.820;13.030;2023-03-31T09:15:44;86.32;;;20.42;;
21315;SDS011;10817;55.820;13.030;2023-03-31T09:18:16;95.05;;;20.95;;
21315;SDS011;10817;55.820;13.030;2023-03-31T09:20:45;88.05;;;20.58;;
21315;SDS011;10817;55.820;13.030;2023-03-31T09:23:17;101.07;;;20.30;;
21315;SDS011;10817;55.820;13.030;2023-03-31T09:25:47;93.90;;;19.02;;
21315;SDS011;10817;55.820;13.030;2023-03-31T09:28:18;107.38;;;20.42;;
21315;SDS011;10817;55.820;13.030;2023-03-31T09:30:45;108.85;;;18.35;;
21315;SDS011;10817;55.820;13.030;2023-03-31T09:33:16;88.95;;;21.27;;
21315;SDS011;10817;55.820;13.030;2023-03-31T09:35:44;99.82;;;21.30;;
21315;SDS011;10817;55.820;13.030;2023-03-31T09:38:11;125.15;;;22.42;;
21315;SDS011;10817;55.820;13.030;2023-03-31T09:40:40;100.85;;;21.25;;
21315;SDS011;10817;55.820;13.030;2023-03-31T09:43:11;116.80;;;22.33;;
21315;SDS011;10817;55.820;13.030;2023-03-31T09:45:41;116.22;;;20.98;;
21315;SDS011;10817;55.820;13.030;2023-03-31T09:48:11;95.10;;;21.02;;
21315;SDS011;10817;55.820;13.030;2023-03-31T09:50:42;142.00;;;21.38;;
21315;SDS011;10817;55.820;13.030;2023-03-31T09:53:13;113.35;;;22.55;;
21315;SDS011;10817;55.820;13.030;2023-03-31T09:55:42;122.88;;;24.48;;
21315;SDS011;10817;55.820;13.030;2023-03-31T09:58:11;114.22;;;22.20;;
21315;SDS011;10817;55.820;13.030;2023-03-31T10:00:39;112.65;;;24.83;;
21315;SDS011;10817;55.820;13.030;2023-03-31T10:03:06;114.10;;;22.38;;
21315;SDS011;10817;55.820;13.030;2023-03-31T10:05:38;99.82;;;22.92;;
21315;SDS011;10817;55.820;13.030;2023-03-31T10:08:17;102.10;;;22.17;;
21315;SDS011;10817;55.820;13.030;2023-03-31T10:10:47;96.93;;;21.23;;
21315;SDS011;10817;55.820;13.030;2023-03-31T10:13:15;96.03;;;22.83;;
21315;SDS011;10817;55.820;13.030;2023-03-31T10:15:43;76.28;;;20.27;;
21315;SDS011;10817;55.820;13.030;2023-03-31T10:18:12;72.90;;;18.73;;
21315;SDS011;10817;55.820;13.030;2023-03-31T10:20:42;73.32;;;18.20;;
21315;SDS011;10817;55.820;13.030;2023-03-31T10:23:16;64.20;;;17.67;;
21315;SDS011;10817;55.820;13.030;2023-03-31T10:25:44;70.43;;;17.85;;
21315;SDS011;10817;55.820;13.030;2023-03-31T10:28:14;64.03;;;17.35;;
21315;SDS011;10817;55.820;13.030;2023-03-31T10:30:45;60.00;;;16.27;;
21315;SDS011;10817;55.820;13.030;2023-03-31T10:33:14;51.13;;;13.73;;
21315;SDS011;10817;55.820;13.030;2023-03-31T10:35:43;44.88;;;14.30;;
21315;SDS011;10817;55.820;13.030;2023-03-31T10:38:11;41.25;;;11.98;;
21315;SDS011;10817;55.820;13.030;2023-03-31T10:40:41;40.63;;;12.50;;
21315;SDS011;10817;55.820;13.030;2023-03-31T10:43:15;39.17;;;12.65;;
21315;SDS011;10817;55.820;13.030;2023-03-31T10:45:43;34.38;;;11.70;;
21315;SDS011;10817;55.820;13.030;2023-03-31T10:48:17;27.80;;;10.40;;
21315;SDS011;10817;55.820;13.030;2023-03-31T10:50:44;24.98;;;8.70;;
21315;SDS011;10817;55.820;13.030;2023-03-31T10:53:12;24.13;;;8.82;;
21315;SDS011;10817;55.820;13.030;2023-03-31T10:55:44;19.15;;;7.75;;
21315;SDS011;10817;55.820;13.030;2023-03-31T10:58:15;29.27;;;9.90;;
21315;SDS011;10817;55.820;13.030;2023-03-31T11:00:49;21.73;;;7.22;;
21315;SDS011;10817;55.820;13.030;2023-03-31T11:03:47;15.57;;;7.28;;
21315;SDS011;10817;55.820;13.030;2023-03-31T11:06:21;19.73;;;7.43;;
21315;SDS011;10817;55.820;13.030;2023-03-31T11:08:55;21.63;;;7.85;;
21315;SDS011;10817;55.820;13.030;2023-03-31T11:11:31;20.77;;;8.75;;
21315;SDS011;10817;55.820;13.030;2023-03-31T11:14:01;19.48;;;7.22;;
21315;SDS011;10817;55.820;13.030;2023-03-31T11:16:33;22.27;;;8.00;;
21315;SDS011;10817;55.820;13.030;2023-03-31T11:19:08;25.23;;;8.32;;
21315;SDS011;10817;55.820;13.030;2023-03-31T11:21:41;20.48;;;8.88;;
21315;SDS011;10817;55.820;13.030;2023-03-31T11:24:16;19.33;;;7.90;;
21315;SDS011;10817;55.820;13.030;2023-03-31T11:26:51;15.73;;;7.30;;
21315;SDS011;10817;55.820;13.030;2023-03-31T11:29:27;17.67;;;8.38;;
21315;SDS011;10817;55.820;13.030;2023-03-31T11:32:00;17.92;;;7.82;;
21315;SDS011;10817;55.820;13.030;2023-03-31T11:34:40;20.95;;;8.88;;
21315;SDS011;10817;55.820;13.030;2023-03-31T11:37:20;20.05;;;8.10;;
21315;SDS011;10817;55.820;13.030;2023-03-31T11:39:59;20.75;;;8.00;;
21315;SDS011;10817;55.820;13.030;2023-03-31T11:42:34;18.05;;;7.93;;
21315;SDS011;10817;55.820;13.030;2023-03-31T11:45:03;15.23;;;7.68;;
21315;SDS011;10817;55.820;13.030;2023-03-31T11:47:32;19.70;;;7.70;;
21315;SDS011;10817;55.820;13.030;2023-03-31T11:50:02;14.57;;;7.65;;
21315;SDS011;10817;55.820;13.030;2023-03-31T11:52:31;16.00;;;7.47;;
21315;SDS011;10817;55.820;13.030;2023-03-31T11:55:00;18.23;;;8.65;;
21315;SDS011;10817;55.820;13.030;2023-03-31T11:57:30;19.45;;;8.90;;
21315;SDS011;10817;55.820;13.030;2023-03-31T12:00:03;19.33;;;6.65;;
21315;SDS011;10817;55.820;13.030;2023-03-31T12:02:38;13.13;;;6.88;;
21315;SDS011;10817;55.820;13.030;2023-03-31T12:05:06;18.20;;;6.60;;
21315;SDS011;10817;55.820;13.030;2023-03-31T12:07:37;12.43;;;6.00;;
21315;SDS011;10817;55.820;13.030;2023-03-31T12:10:10;13.77;;;5.63;;
21315;SDS011;10817;55.820;13.030;2023-03-31T12:12:41;16.13;;;6.85;;
21315;SDS011;10817;55.820;13.030;2023-03-31T12:15:12;11.27;;;6.22;;
21315;SDS011;10817;55.820;13.030;2023-03-31T12:17:43;10.88;;;5.63;;
21315;SDS011;10817;55.820;13.030;2023-03-31T12:20:13;11.60;;;5.15;;
21315;SDS011;10817;55.820;13.030;2023-03-31T12:22:44;13.80;;;5.65;;
21315;SDS011;10817;55.820;13.030;2023-03-31T12:25:13;11.05;;;4.85;;
21315;SDS011;10817;55.820;13.030;2023-03-31T12:27:42;8.88;;;5.07;;
21315;SDS011;10817;55.820;13.030;2023-03-31T12:30:16;9.80;;;5.07;;
21315;SDS011;10817;55.820;13.030;2023-03-31T12:32:46;9.00;;;4.82;;
21315;SDS011;10817;55.820;13.030;2023-03-31T12:35:17;10.65;;;4.82;;
21315;SDS011;10817;55.820;13.030;2023-03-31T12:37:50;8.68;;;5.05;;
21315;SDS011;10817;55.820;13.030;2023-03-31T12:40:26;9.68;;;4.53;;
21315;SDS011;10817;55.820;13.030;2023-03-31T12:43:03;8.27;;;4.30;;
21315;SDS011;10817;55.820;13.030;2023-03-31T12:45:35;13.05;;;4.60;;
21315;SDS011;10817;55.820;13.030;2023-03-31T12:48:10;6.90;;;3.75;;
21315;SDS011;10817;55.820;13.030;2023-03-31T12:50:52;7.68;;;3.53;;
21315;SDS011;10817;55.820;13.030;2023-03-31T12:53:24;8.18;;;4.10;;
21315;SDS011;10817;55.820;13.030;2023-03-31T12:55:55;9.15;;;3.97;;
21315;SDS011;10817;55.820;13.030;2023-03-31T12:58:36;12.88;;;3.95;;
21315;SDS011;10817;55.820;13.030;2023-03-31T13:01:18;11.30;;;4.10;;
21315;SDS011;10817;55.820;13.030;2023-03-31T13:03:50;11.45;;;3.95;;
21315;SDS011;10817;55.820;13.030;2023-03-31T13:09:03;13.02;;;4.32;;
21315;SDS011;10817;55.820;13.030;2023-03-31T13:11:36;12.38;;;4.43;;
21315;SDS011;10817;55.820;13.030;2023-03-31T13:14:04;11.60;;;4.35;;
21315;SDS011;10817;55.820;13.030;2023-03-31T13:16:33;12.50;;;4.50;;
21315;SDS011;10817;55.820;13.030;2023-03-31T13:19:01;9.05;;;3.63;;
21315;SDS011;10817;55.820;13.030;2023-03-31T13:21:28;5.00;;;3.10;;
21315;SDS011;10817;55.820;13.030;2023-03-31T13:23:58;9.57;;;3.25;;
21315;SDS011;10817;55.820;13.030;2023-03-31T13:26:38;11.48;;;3.17;;
21315;SDS011;10817;55.820;13.030;2023-03-31T13:32:18;10.35;;;3.30;;
21315;SDS011;10817;55.820;13.030;2023-03-31T13:34:48;8.52;;;3.33;;
21315;SDS011;10817;55.820;13.030;2023-03-31T13:37:18;9.85;;;3.67;;
21315;SDS011;10817;55.820;13.030;2023-03-31T13:42:52;7.60;;;3.58;;
21315;SDS011;10817;55.820;13.030;2023-03-31T13:45:26;8.70;;;3.67;;
21315;SDS011;10817;55.820;13.030;2023-03-31T13:48:04;9.20;;;3.85;;
21315;SDS011;10817;55.820;13.030;2023-03-31T13:50:38;11.48;;;3.83;;
21315;SDS011;10817;55.820;13.030;2023-03-31T13:53:12;9.30;;;3.50;;
21315;SDS011;10817;55.820;13.030;2023-03-31T13:55:48;5.93;;;2.90;;
21315;SDS011;10817;55.820;13.030;2023-03-31T14:01:15;13.07;;;4.25;;
21315;SDS011;10817;55.820;13.030;2023-03-31T14:03:51;9.60;;;3.88;;
21315;SDS011;10817;55.820;13.030;2023-03-31T14:06:22;11.68;;;3.28;;
21315;SDS011;10817;55.820;13.030;2023-03-31T14:08:51;5.05;;;2.22;;
21315;SDS011;10817;55.820;13.030;2023-03-31T14:11:21;1.63;;;1.50;;
21315;SDS011;10817;55.820;13.030;2023-03-31T14:14:02;2.72;;;1.77;;
21315;SDS011;10817;55.820;13.030;2023-03-31T14:16:31;2.78;;;2.10;;
21315;SDS011;10817;55.820;13.030;2023-03-31T14:19:03;3.13;;;2.10;;
21315;SDS011;10817;55.820;13.030;2023-03-31T14:21:34;2.33;;;2.00;;
21315;SDS011;10817;55.820;13.030;2023-03-31T14:24:07;4.70;;;2.30;;
21315;SDS011;10817;55.820;13.030;2023-03-31T14:29:26;3.35;;;1.98;;
21315;SDS011;10817;55.820;13.030;2023-03-31T14:31:58;1.92;;;1.60;;
21315;SDS011;10817;55.820;13.030;2023-03-31T14:34:33;1.80;;;1.40;;
21315;SDS011;10817;55.820;13.030;2023-03-31T14:37:05;2.55;;;1.48;;
21315;SDS011;10817;55.820;13.030;2023-03-31T14:39:34;2.03;;;1.67;;
21315;SDS011;10817;55.820;13.030;2023-03-31T14:42:03;3.03;;;2.25;;
21315;SDS011;10817;55.820;13.030;2023-03-31T14:44:32;2.63;;;2.03;;
21315;SDS011;10817;55.820;13.030;2023-03-31T14:46:59;5.22;;;2.03;;
21315;SDS011;10817;55.820;13.030;2023-03-31T14:49:27;2.78;;;2.28;;
21315;SDS011;10817;55.820;13.030;2023-03-31T14:51:59;4.28;;;2.90;;
21315;SDS011;10817;55.820;13.030;2023-03-31T14:54:27;3.92;;;2.60;;